Terminal Aerodrome Forecast
Issued by NWS Spokane, WA

Home | Current Version | Previous Version | Text Only | Print | Product List | Glossary On
Versions: 1 2 3 4 5 6 7 8 9 10 11 12 13 14 15 16 17 18 19 20 21
000
FTUS46 KOTX 200539
TAFEAT
TAF
KEAT 200539Z 2006/2106 04003KT P6SM OVC010
     FM201000 VRB02KT 6SM BR OVC009
     FM202200 VRB02KT 1SM -SN OVC008
     FM210200 VRB02KT 3/4SM -SN BKN005 OVC015=

USA.gov is the U.S. government's official web portal to all federal, state and local government web resources and services.